Bureau, Illinois
Current Conditions -  °F | °C
As of 11:35 AM on Wednesday 26 Nov 2014 (Local Time) from KVYS Reporting Station
Overcast Overcast  
Wind Chill: 20°   Ceiling: 900
Heat Index: 29°   Visibility: 7mi
Dew Point: 25°   Wind: 10mph
Humidity: 85%   Direction: 100°E
Pressure: 30.1"   Gusts: NA
Location:  41.29°N, 89.37°W
Report Text: KVYS 261735Z AUTO 10009KT 7SM OVC009 M01/M04 A3010 RMK AO2 T10151038
Loading
Personal Weather Stations






























Interactive Weather Map New forecast layout! Learn more

10-Day Weather Forecast

Advertisements
Track Severe Weather on mobile